This is the latest recevied weather packets stored in our database for station/object LZ3DJ-10. If no packets are shown the sender has not sent any weather packets the latest 10 day(s).
| Time | Temp. | Humidity | Pressure | Rain* | Wind** | Luminosity | Snow |
|---|---|---|---|---|---|---|---|
| 1787850905 | 28.33° C | 45% | 1012.3 hPa | 0 mm | 0 m/s | - | - |
| 1787850005 | 28.89° C | 45% | 1012.3 hPa | 0 mm | 0 m/s | - | - |
| 1787849105 | 31.11° C | 41% | 1011.9 hPa | 0 mm | 0 m/s | - | - |
| 1787848206 | 32.22° C | 40% | 1011.8 hPa | 0 mm | 0 m/s | - | - |
| 1787847305 | 31.67° C | 39% | 1011.9 hPa | 0 mm | 0 m/s | - | - |
| 1787846406 | 31.67° C | 39% | 1011.9 hPa | 0 mm | 0 m/s | - | - |
| 1787845506 | 32.78° C | 38% | 1011.6 hPa | 0 mm | 0 m/s | - | - |
| 1787844606 | 32.22° C | 38% | 1011.6 hPa | 0 mm | 0 m/s | - | - |
| 1787843706 | 33.89° C | 36% | 1011.2 hPa | 0 mm | 0 m/s | - | - |
| 1787842805 | 35.56° C | 34% | 1010.7 hPa | 0 mm | 0 m/s | - | - |
| 1787841906 | 35° C | 34% | 1010.9 hPa | 0 mm | 0 m/s | - | - |
| 1787841005 | 34.44° C | 34% | 1010.9 hPa | 0 mm | 0 m/s | - | - |
| 1787840106 | 35° C | 35% | 1010.9 hPa | 0 mm | 0 m/s | - | - |
| 1787839206 | 34.44° C | 35% | 1011 hPa | 0 mm | 0 m/s | - | - |
| 1787838306 | 37.22° C | 31% | 1010.6 hPa | 0 mm | 0 m/s | - | - |
| 1787837406 | 36.11° C | 32% | 1010.8 hPa | 0 mm | 0.45 m/s, 141° | - | - |
| 1787836505 | 35.56° C | 32% | 1010.9 hPa | 0 mm | 0 m/s | - | - |
| 1787835606 | 35° C | 33% | 1011.1 hPa | 0 mm | 0 m/s | - | - |
| 1787834706 | 34.44° C | 34% | 1011.2 hPa | 0 mm | 0.45 m/s, 327° | - | - |
| 1787833806 | 34.44° C | 34% | 1011.5 hPa | 0 mm | 0.89 m/s, 322° | - | - |
| 1787832906 | 33.89° C | 35% | 1011.8 hPa | 0 mm | 0.45 m/s, 322° | - | - |
| 1787832005 | 34.44° C | 34% | 1011.7 hPa | 0 mm | 0.45 m/s, 322° | - | - |
| 1787831106 | 34.44° C | 34% | 1011.8 hPa | 0 mm | 0 m/s | - | - |
| 1787830206 | 33.33° C | 37% | 1012.3 hPa | 0 mm | 0.45 m/s, 321° | - | - |
| 1787829305 | 32.22° C | 38% | 1012.7 hPa | 0 mm | 0 m/s | - | - |
* Rain latest hour (hover to see other rain measurements)
** Current wind speed in m/s (hover to see current wind gust speed)